sensor_id;sensor_type;location;lat;lon;timestamp;temperature;humidity
15156;DHT22;7678;50.058;8.306;2023-09-08T00:00:22;19.40;98.20
15156;DHT22;7678;50.058;8.306;2023-09-08T00:02:52;19.20;98.50
15156;DHT22;7678;50.058;8.306;2023-09-08T00:05:28;19.10;99.10
15156;DHT22;7678;50.058;8.306;2023-09-08T00:07:57;19.00;99.50
15156;DHT22;7678;50.058;8.306;2023-09-08T00:10:28;19.00;99.80
15156;DHT22;7678;50.058;8.306;2023-09-08T00:12:57;19.00;99.90
15156;DHT22;7678;50.058;8.306;2023-09-08T00:15:25;19.10;99.40
15156;DHT22;7678;50.058;8.306;2023-09-08T00:17:59;19.00;99.70
15156;DHT22;7678;50.058;8.306;2023-09-08T00:20:41;19.10;98.00
15156;DHT22;7678;50.058;8.306;2023-09-08T00:23:11;19.30;98.60
15156;DHT22;7678;50.058;8.306;2023-09-08T00:25:42;19.20;98.30
15156;DHT22;7678;50.058;8.306;2023-09-08T00:28:15;19.30;98.30
15156;DHT22;7678;50.058;8.306;2023-09-08T00:30:47;19.40;97.80
15156;DHT22;7678;50.058;8.306;2023-09-08T00:33:17;19.40;96.60
15156;DHT22;7678;50.058;8.306;2023-09-08T00:35:48;19.50;96.70
15156;DHT22;7678;50.058;8.306;2023-09-08T00:38:18;19.50;96.20
15156;DHT22;7678;50.058;8.306;2023-09-08T00:40:47;19.40;96.60
15156;DHT22;7678;50.058;8.306;2023-09-08T00:43:16;19.60;95.70
15156;DHT22;7678;50.058;8.306;2023-09-08T00:45:46;19.60;95.70
15156;DHT22;7678;50.058;8.306;2023-09-08T00:48:17;19.40;95.40
15156;DHT22;7678;50.058;8.306;2023-09-08T00:50:46;19.40;96.00
15156;DHT22;7678;50.058;8.306;2023-09-08T00:53:16;19.40;96.60
15156;DHT22;7678;50.058;8.306;2023-09-08T00:55:45;19.20;96.30
15156;DHT22;7678;50.058;8.306;2023-09-08T00:58:14;19.20;97.40
15156;DHT22;7678;50.058;8.306;2023-09-08T01:00:46;19.10;96.90
15156;DHT22;7678;50.058;8.306;2023-09-08T01:03:20;19.10;97.50
15156;DHT22;7678;50.058;8.306;2023-09-08T01:05:49;19.20;96.60
15156;DHT22;7678;50.058;8.306;2023-09-08T01:08:17;19.20;96.50
15156;DHT22;7678;50.058;8.306;2023-09-08T01:10:48;19.10;96.60
15156;DHT22;7678;50.058;8.306;2023-09-08T01:13:17;18.90;97.20
15156;DHT22;7678;50.058;8.306;2023-09-08T01:15:48;18.80;98.10
15156;DHT22;7678;50.058;8.306;2023-09-08T01:18:26;18.70;99.00
15156;DHT22;7678;50.058;8.306;2023-09-08T01:21:12;18.60;98.90
15156;DHT22;7678;50.058;8.306;2023-09-08T01:23:59;18.50;99.90
15156;DHT22;7678;50.058;8.306;2023-09-08T01:26:36;18.40;99.90
15156;DHT22;7678;50.058;8.306;2023-09-08T01:29:09;18.40;99.90
15156;DHT22;7678;50.058;8.306;2023-09-08T01:31:39;18.50;99.90
15156;DHT22;7678;50.058;8.306;2023-09-08T01:34:08;18.50;99.90
15156;DHT22;7678;50.058;8.306;2023-09-08T01:36:43;18.40;99.90
15156;DHT22;7678;50.058;8.306;2023-09-08T01:39:12;18.50;99.90
15156;DHT22;7678;50.058;8.306;2023-09-08T01:41:46;18.40;99.90
15156;DHT22;7678;50.058;8.306;2023-09-08T01:44:16;18.40;99.90
15156;DHT22;7678;50.058;8.306;2023-09-08T01:46:47;18.50;99.90
15156;DHT22;7678;50.058;8.306;2023-09-08T01:49:19;18.40;99.90
15156;DHT22;7678;50.058;8.306;2023-09-08T01:51:47;18.40;99.90
15156;DHT22;7678;50.058;8.306;2023-09-08T01:54:17;18.40;99.90
15156;DHT22;7678;50.058;8.306;2023-09-08T01:56:49;18.20;99.90
15156;DHT22;7678;50.058;8.306;2023-09-08T01:59:18;18.10;99.90
15156;DHT22;7678;50.058;8.306;2023-09-08T02:01:49;18.20;99.90
15156;DHT22;7678;50.058;8.306;2023-09-08T02:04:22;18.20;99.90
15156;DHT22;7678;50.058;8.306;2023-09-08T02:06:50;18.20;99.90
15156;DHT22;7678;50.058;8.306;2023-09-08T02:09:20;18.30;99.90
15156;DHT22;7678;50.058;8.306;2023-09-08T02:11:51;18.20;99.90
15156;DHT22;7678;50.058;8.306;2023-09-08T02:14:23;18.30;99.90
15156;DHT22;7678;50.058;8.306;2023-09-08T02:16:51;18.30;99.90
15156;DHT22;7678;50.058;8.306;2023-09-08T02:19:19;18.20;99.90
15156;DHT22;7678;50.058;8.306;2023-09-08T02:21:48;18.30;99.90
15156;DHT22;7678;50.058;8.306;2023-09-08T02:24:18;18.30;99.90
15156;DHT22;7678;50.058;8.306;2023-09-08T02:26:47;18.20;99.90
15156;DHT22;7678;50.058;8.306;2023-09-08T02:29:18;18.20;99.90
15156;DHT22;7678;50.058;8.306;2023-09-08T02:31:48;18.20;99.90
15156;DHT22;7678;50.058;8.306;2023-09-08T02:34:17;18.10;99.90
15156;DHT22;7678;50.058;8.306;2023-09-08T02:36:45;18.00;99.90
15156;DHT22;7678;50.058;8.306;2023-09-08T02:39:16;18.00;99.90
15156;DHT22;7678;50.058;8.306;2023-09-08T02:41:44;18.00;99.90
15156;DHT22;7678;50.058;8.306;2023-09-08T02:44:14;17.90;99.90
15156;DHT22;7678;50.058;8.306;2023-09-08T02:46:44;17.90;99.90
15156;DHT22;7678;50.058;8.306;2023-09-08T02:49:15;17.80;99.90
15156;DHT22;7678;50.058;8.306;2023-09-08T02:51:43;17.80;99.90
15156;DHT22;7678;50.058;8.306;2023-09-08T02:54:13;17.70;99.90
15156;DHT22;7678;50.058;8.306;2023-09-08T02:56:42;17.80;99.90
15156;DHT22;7678;50.058;8.306;2023-09-08T02:59:10;17.90;99.90
15156;DHT22;7678;50.058;8.306;2023-09-08T03:01:39;17.90;99.90
15156;DHT22;7678;50.058;8.306;2023-09-08T03:04:11;17.80;99.90
15156;DHT22;7678;50.058;8.306;2023-09-08T03:06:40;17.80;99.90
15156;DHT22;7678;50.058;8.306;2023-09-08T03:09:11;17.80;99.90
15156;DHT22;7678;50.058;8.306;2023-09-08T03:11:39;17.80;99.90
15156;DHT22;7678;50.058;8.306;2023-09-08T03:14:08;17.80;99.90
15156;DHT22;7678;50.058;8.306;2023-09-08T03:16:36;17.90;99.90
15156;DHT22;7678;50.058;8.306;2023-09-08T03:19:05;17.80;99.90
15156;DHT22;7678;50.058;8.306;2023-09-08T03:21:35;17.70;99.90
15156;DHT22;7678;50.058;8.306;2023-09-08T03:24:08;17.60;99.90
15156;DHT22;7678;50.058;8.306;2023-09-08T03:26:36;17.40;99.90
15156;DHT22;7678;50.058;8.306;2023-09-08T03:29:08;17.50;99.90
15156;DHT22;7678;50.058;8.306;2023-09-08T03:31:39;17.40;99.90
15156;DHT22;7678;50.058;8.306;2023-09-08T03:34:12;17.40;99.90
15156;DHT22;7678;50.058;8.306;2023-09-08T03:36:49;17.30;99.90
15156;DHT22;7678;50.058;8.306;2023-09-08T03:39:18;17.40;99.90
15156;DHT22;7678;50.058;8.306;2023-09-08T03:41:47;17.30;99.90
15156;DHT22;7678;50.058;8.306;2023-09-08T03:44:16;17.30;99.90
15156;DHT22;7678;50.058;8.306;2023-09-08T03:46:45;17.10;99.90
15156;DHT22;7678;50.058;8.306;2023-09-08T03:49:14;17.10;99.90
15156;DHT22;7678;50.058;8.306;2023-09-08T03:51:48;17.00;99.90
15156;DHT22;7678;50.058;8.306;2023-09-08T03:54:17;17.10;99.90
15156;DHT22;7678;50.058;8.306;2023-09-08T03:56:49;17.10;99.90
15156;DHT22;7678;50.058;8.306;2023-09-08T03:59:21;17.00;99.90
15156;DHT22;7678;50.058;8.306;2023-09-08T04:01:56;16.90;99.90
15156;DHT22;7678;50.058;8.306;2023-09-08T04:04:25;16.80;99.90
15156;DHT22;7678;50.058;8.306;2023-09-08T04:06:56;16.60;99.90
15156;DHT22;7678;50.058;8.306;2023-09-08T04:09:26;16.80;99.90
15156;DHT22;7678;50.058;8.306;2023-09-08T04:11:56;16.70;99.90
15156;DHT22;7678;50.058;8.306;2023-09-08T04:14:25;16.90;99.90
15156;DHT22;7678;50.058;8.306;2023-09-08T04:16:59;16.90;99.90
15156;DHT22;7678;50.058;8.306;2023-09-08T04:19:28;16.70;99.90
15156;DHT22;7678;50.058;8.306;2023-09-08T04:21:58;16.80;99.90
15156;DHT22;7678;50.058;8.306;2023-09-08T04:24:26;16.70;99.90
15156;DHT22;7678;50.058;8.306;2023-09-08T04:26:55;16.70;99.90
15156;DHT22;7678;50.058;8.306;2023-09-08T04:29:24;16.80;99.90
15156;DHT22;7678;50.058;8.306;2023-09-08T04:31:53;16.70;99.90
15156;DHT22;7678;50.058;8.306;2023-09-08T04:34:23;16.50;99.90
15156;DHT22;7678;50.058;8.306;2023-09-08T04:36:53;16.50;99.90
15156;DHT22;7678;50.058;8.306;2023-09-08T04:39:23;16.50;99.90
15156;DHT22;7678;50.058;8.306;2023-09-08T04:41:54;16.50;99.90
15156;DHT22;7678;50.058;8.306;2023-09-08T04:44:26;16.60;99.90
15156;DHT22;7678;50.058;8.306;2023-09-08T04:46:55;16.60;99.90
15156;DHT22;7678;50.058;8.306;2023-09-08T04:49:24;16.40;99.90
15156;DHT22;7678;50.058;8.306;2023-09-08T04:51:54;16.50;99.90
15156;DHT22;7678;50.058;8.306;2023-09-08T04:54:25;16.40;99.90
15156;DHT22;7678;50.058;8.306;2023-09-08T04:56:54;16.40;99.90
15156;DHT22;7678;50.058;8.306;2023-09-08T04:59:39;16.40;99.90
15156;DHT22;7678;50.058;8.306;2023-09-08T05:02:11;16.40;99.90
15156;DHT22;7678;50.058;8.306;2023-09-08T05:04:44;16.50;99.90
15156;DHT22;7678;50.058;8.306;2023-09-08T05:07:12;16.40;99.90
15156;DHT22;7678;50.058;8.306;2023-09-08T05:09:42;16.30;99.90
15156;DHT22;7678;50.058;8.306;2023-09-08T05:12:13;16.30;99.90
15156;DHT22;7678;50.058;8.306;2023-09-08T05:14:43;16.30;99.90
15156;DHT22;7678;50.058;8.306;2023-09-08T05:17:23;16.30;99.90
15156;DHT22;7678;50.058;8.306;2023-09-08T05:19:53;16.30;99.90
15156;DHT22;7678;50.058;8.306;2023-09-08T05:22:29;16.30;99.90
15156;DHT22;7678;50.058;8.306;2023-09-08T05:25:02;16.20;99.90
15156;DHT22;7678;50.058;8.306;2023-09-08T05:27:32;16.20;99.90
15156;DHT22;7678;50.058;8.306;2023-09-08T05:30:03;16.20;99.90
15156;DHT22;7678;50.058;8.306;2023-09-08T05:32:34;16.30;99.90
15156;DHT22;7678;50.058;8.306;2023-09-08T05:35:13;16.30;99.90
15156;DHT22;7678;50.058;8.306;2023-09-08T05:37:45;16.50;99.90
15156;DHT22;7678;50.058;8.306;2023-09-08T05:40:17;16.60;99.90
15156;DHT22;7678;50.058;8.306;2023-09-08T05:42:48;16.70;99.90
15156;DHT22;7678;50.058;8.306;2023-09-08T05:45:18;16.80;99.90
15156;DHT22;7678;50.058;8.306;2023-09-08T05:47:47;17.00;99.90
15156;DHT22;7678;50.058;8.306;2023-09-08T05:50:19;17.30;99.90
15156;DHT22;7678;50.058;8.306;2023-09-08T05:52:52;17.50;99.90
15156;DHT22;7678;50.058;8.306;2023-09-08T05:55:23;17.70;99.90
15156;DHT22;7678;50.058;8.306;2023-09-08T05:57:52;18.00;99.90
15156;DHT22;7678;50.058;8.306;2023-09-08T06:00:22;18.10;99.90
15156;DHT22;7678;50.058;8.306;2023-09-08T06:02:50;18.40;99.90
15156;DHT22;7678;50.058;8.306;2023-09-08T06:05:19;18.60;99.90
15156;DHT22;7678;50.058;8.306;2023-09-08T06:07:48;18.60;99.90
15156;DHT22;7678;50.058;8.306;2023-09-08T06:10:33;18.80;99.90
15156;DHT22;7678;50.058;8.306;2023-09-08T06:13:04;18.90;99.90
15156;DHT22;7678;50.058;8.306;2023-09-08T06:15:32;19.00;99.90
15156;DHT22;7678;50.058;8.306;2023-09-08T06:18:00;19.10;99.90
15156;DHT22;7678;50.058;8.306;2023-09-08T06:20:29;19.10;99.90
15156;DHT22;7678;50.058;8.306;2023-09-08T06:22:57;19.20;99.90
15156;DHT22;7678;50.058;8.306;2023-09-08T06:25:26;19.30;99.90
15156;DHT22;7678;50.058;8.306;2023-09-08T06:27:57;19.40;99.90
15156;DHT22;7678;50.058;8.306;2023-09-08T06:30:25;19.40;99.90
15156;DHT22;7678;50.058;8.306;2023-09-08T06:32:57;19.50;99.90
15156;DHT22;7678;50.058;8.306;2023-09-08T06:35:30;19.50;99.90
15156;DHT22;7678;50.058;8.306;2023-09-08T06:37:59;19.50;99.90
15156;DHT22;7678;50.058;8.306;2023-09-08T06:40:33;19.50;99.90
15156;DHT22;7678;50.058;8.306;2023-09-08T06:43:03;19.50;99.90
15156;DHT22;7678;50.058;8.306;2023-09-08T06:45:32;19.70;99.90
15156;DHT22;7678;50.058;8.306;2023-09-08T06:48:01;19.70;99.90
15156;DHT22;7678;50.058;8.306;2023-09-08T06:50:31;19.70;99.90
15156;DHT22;7678;50.058;8.306;2023-09-08T06:53:12;19.80;99.90
15156;DHT22;7678;50.058;8.306;2023-09-08T06:55:47;19.80;99.90
15156;DHT22;7678;50.058;8.306;2023-09-08T06:58:20;19.90;99.90
15156;DHT22;7678;50.058;8.306;2023-09-08T07:00:55;20.00;99.90
15156;DHT22;7678;50.058;8.306;2023-09-08T07:03:30;20.00;99.90
15156;DHT22;7678;50.058;8.306;2023-09-08T07:06:05;20.00;99.90
15156;DHT22;7678;50.058;8.306;2023-09-08T07:08:35;20.10;99.90
15156;DHT22;7678;50.058;8.306;2023-09-08T07:11:04;20.20;99.90
15156;DHT22;7678;50.058;8.306;2023-09-08T07:13:39;20.30;99.90
15156;DHT22;7678;50.058;8.306;2023-09-08T07:16:11;20.30;99.90
15156;DHT22;7678;50.058;8.306;2023-09-08T07:18:49;20.30;99.90
15156;DHT22;7678;50.058;8.306;2023-09-08T07:21:18;20.30;99.90
15156;DHT22;7678;50.058;8.306;2023-09-08T07:23:48;20.40;99.90
15156;DHT22;7678;50.058;8.306;2023-09-08T07:26:17;20.50;99.90
15156;DHT22;7678;50.058;8.306;2023-09-08T07:28:47;20.60;99.90
15156;DHT22;7678;50.058;8.306;2023-09-08T07:31:17;20.60;99.90
15156;DHT22;7678;50.058;8.306;2023-09-08T07:33:45;20.60;99.90
15156;DHT22;7678;50.058;8.306;2023-09-08T07:36:15;20.80;99.60
15156;DHT22;7678;50.058;8.306;2023-09-08T07:38:44;20.70;99.90
15156;DHT22;7678;50.058;8.306;2023-09-08T07:41:14;20.70;99.90
15156;DHT22;7678;50.058;8.306;2023-09-08T07:43:49;20.70;99.90
15156;DHT22;7678;50.058;8.306;2023-09-08T07:46:23;20.90;99.90
15156;DHT22;7678;50.058;8.306;2023-09-08T07:48:53;20.90;99.70
15156;DHT22;7678;50.058;8.306;2023-09-08T07:51:22;20.90;99.60
15156;DHT22;7678;50.058;8.306;2023-09-08T07:53:52;21.00;98.80
15156;DHT22;7678;50.058;8.306;2023-09-08T07:56:22;21.00;99.40
15156;DHT22;7678;50.058;8.306;2023-09-08T07:58:52;21.10;98.80
15156;DHT22;7678;50.058;8.306;2023-09-08T08:01:20;21.20;99.00
15156;DHT22;7678;50.058;8.306;2023-09-08T08:03:49;21.30;97.80
15156;DHT22;7678;50.058;8.306;2023-09-08T08:06:18;21.30;97.60
15156;DHT22;7678;50.058;8.306;2023-09-08T08:08:51;21.20;97.90
15156;DHT22;7678;50.058;8.306;2023-09-08T08:11:22;21.20;98.60
15156;DHT22;7678;50.058;8.306;2023-09-08T08:13:55;21.30;98.00
15156;DHT22;7678;50.058;8.306;2023-09-08T08:16:25;21.30;97.50
15156;DHT22;7678;50.058;8.306;2023-09-08T08:18:55;21.40;97.60
15156;DHT22;7678;50.058;8.306;2023-09-08T08:21:26;21.30;97.10
15156;DHT22;7678;50.058;8.306;2023-09-08T08:23:57;21.30;97.00
15156;DHT22;7678;50.058;8.306;2023-09-08T08:26:25;21.40;96.80
15156;DHT22;7678;50.058;8.306;2023-09-08T08:28:58;21.60;97.20
15156;DHT22;7678;50.058;8.306;2023-09-08T08:31:35;21.70;97.30
15156;DHT22;7678;50.058;8.306;2023-09-08T08:34:05;21.90;95.80
15156;DHT22;7678;50.058;8.306;2023-09-08T08:36:35;21.70;97.10
15156;DHT22;7678;50.058;8.306;2023-09-08T08:39:06;21.80;96.70
15156;DHT22;7678;50.058;8.306;2023-09-08T08:41:34;21.90;96.70
15156;DHT22;7678;50.058;8.306;2023-09-08T08:44:08;21.80;96.70
15156;DHT22;7678;50.058;8.306;2023-09-08T08:46:40;21.90;96.70
15156;DHT22;7678;50.058;8.306;2023-09-08T08:49:11;22.00;96.10
15156;DHT22;7678;50.058;8.306;2023-09-08T08:51:47;22.10;95.70
15156;DHT22;7678;50.058;8.306;2023-09-08T08:54:16;22.00;96.00
15156;DHT22;7678;50.058;8.306;2023-09-08T08:56:44;22.10;95.20
15156;DHT22;7678;50.058;8.306;2023-09-08T08:59:14;22.10;96.10
15156;DHT22;7678;50.058;8.306;2023-09-08T09:01:55;22.20;95.40
15156;DHT22;7678;50.058;8.306;2023-09-08T09:04:25;22.20;94.70
15156;DHT22;7678;50.058;8.306;2023-09-08T09:06:54;22.40;94.30
15156;DHT22;7678;50.058;8.306;2023-09-08T09:09:23;22.60;93.80
15156;DHT22;7678;50.058;8.306;2023-09-08T09:11:57;22.70;93.60
15156;DHT22;7678;50.058;8.306;2023-09-08T09:14:31;22.60;94.10
15156;DHT22;7678;50.058;8.306;2023-09-08T09:17:00;22.60;94.20
15156;DHT22;7678;50.058;8.306;2023-09-08T09:19:31;22.70;93.50
15156;DHT22;7678;50.058;8.306;2023-09-08T09:22:02;22.90;93.70
15156;DHT22;7678;50.058;8.306;2023-09-08T09:24:33;22.80;92.40
15156;DHT22;7678;50.058;8.306;2023-09-08T09:27:03;22.80;93.60
15156;DHT22;7678;50.058;8.306;2023-09-08T09:29:44;23.00;93.40
15156;DHT22;7678;50.058;8.306;2023-09-08T09:32:15;23.20;94.20
15156;DHT22;7678;50.058;8.306;2023-09-08T09:34:52;23.00;91.60
15156;DHT22;7678;50.058;8.306;2023-09-08T09:37:21;23.10;91.20
15156;DHT22;7678;50.058;8.306;2023-09-08T09:39:50;23.30;92.70
15156;DHT22;7678;50.058;8.306;2023-09-08T09:42:20;23.50;91.60
15156;DHT22;7678;50.058;8.306;2023-09-08T09:44:51;23.40;92.10
15156;DHT22;7678;50.058;8.306;2023-09-08T09:47:20;23.20;91.70
15156;DHT22;7678;50.058;8.306;2023-09-08T09:49:49;23.20;91.70
15156;DHT22;7678;50.058;8.306;2023-09-08T09:52:23;23.30;91.60
15156;DHT22;7678;50.058;8.306;2023-09-08T09:54:55;23.40;91.10
15156;DHT22;7678;50.058;8.306;2023-09-08T09:57:25;23.50;91.00
15156;DHT22;7678;50.058;8.306;2023-09-08T10:02:30;24.10;89.20
15156;DHT22;7678;50.058;8.306;2023-09-08T10:05:10;24.10;90.00
15156;DHT22;7678;50.058;8.306;2023-09-08T10:07:40;23.90;88.10
15156;DHT22;7678;50.058;8.306;2023-09-08T10:10:09;24.00;90.60
15156;DHT22;7678;50.058;8.306;2023-09-08T10:12:39;24.00;90.20
15156;DHT22;7678;50.058;8.306;2023-09-08T10:15:10;24.10;89.70
15156;DHT22;7678;50.058;8.306;2023-09-08T10:17:51;24.30;88.30
15156;DHT22;7678;50.058;8.306;2023-09-08T10:20:22;24.40;87.40
15156;DHT22;7678;50.058;8.306;2023-09-08T10:22:54;24.40;89.10
15156;DHT22;7678;50.058;8.306;2023-09-08T10:25:27;24.50;88.80
15156;DHT22;7678;50.058;8.306;2023-09-08T10:28:03;24.50;86.60
15156;DHT22;7678;50.058;8.306;2023-09-08T10:30:32;24.80;85.80
15156;DHT22;7678;50.058;8.306;2023-09-08T10:33:03;24.60;85.80
15156;DHT22;7678;50.058;8.306;2023-09-08T10:35:33;24.50;83.60
15156;DHT22;7678;50.058;8.306;2023-09-08T10:38:23;24.50;85.60
15156;DHT22;7678;50.058;8.306;2023-09-08T10:40:52;24.60;83.50
15156;DHT22;7678;50.058;8.306;2023-09-08T10:43:21;25.00;84.40
15156;DHT22;7678;50.058;8.306;2023-09-08T10:45:54;24.80;83.40
15156;DHT22;7678;50.058;8.306;2023-09-08T10:48:26;25.20;83.40
15156;DHT22;7678;50.058;8.306;2023-09-08T10:50:54;25.10;84.60
15156;DHT22;7678;50.058;8.306;2023-09-08T10:53:23;25.10;80.20
15156;DHT22;7678;50.058;8.306;2023-09-08T10:55:53;25.30;80.10
15156;DHT22;7678;50.058;8.306;2023-09-08T10:58:30;25.50;78.50
15156;DHT22;7678;50.058;8.306;2023-09-08T11:01:04;25.70;79.30
15156;DHT22;7678;50.058;8.306;2023-09-08T11:03:47;25.90;76.90
15156;DHT22;7678;50.058;8.306;2023-09-08T11:06:24;25.80;76.30
15156;DHT22;7678;50.058;8.306;2023-09-08T11:09:06;25.90;78.70
15156;DHT22;7678;50.058;8.306;2023-09-08T11:11:45;25.90;77.10
15156;DHT22;7678;50.058;8.306;2023-09-08T11:14:16;25.90;74.70
15156;DHT22;7678;50.058;8.306;2023-09-08T11:16:47;26.00;77.10
15156;DHT22;7678;50.058;8.306;2023-09-08T11:19:18;26.10;77.30
15156;DHT22;7678;50.058;8.306;2023-09-08T11:21:47;26.20;76.10
15156;DHT22;7678;50.058;8.306;2023-09-08T11:24:20;26.30;74.10
15156;DHT22;7678;50.058;8.306;2023-09-08T11:26:53;26.30;74.10
15156;DHT22;7678;50.058;8.306;2023-09-08T11:29:21;26.30;75.60
15156;DHT22;7678;50.058;8.306;2023-09-08T11:31:52;26.70;73.30
15156;DHT22;7678;50.058;8.306;2023-09-08T11:34:23;26.70;71.80
15156;DHT22;7678;50.058;8.306;2023-09-08T11:36:51;27.00;70.20
15156;DHT22;7678;50.058;8.306;2023-09-08T11:39:37;27.20;70.10
15156;DHT22;7678;50.058;8.306;2023-09-08T11:42:11;27.30;71.70
15156;DHT22;7678;50.058;8.306;2023-09-08T11:44:48;27.30;68.20
15156;DHT22;7678;50.058;8.306;2023-09-08T11:47:16;27.50;69.00
15156;DHT22;7678;50.058;8.306;2023-09-08T11:49:47;27.50;69.60
15156;DHT22;7678;50.058;8.306;2023-09-08T11:52:24;27.60;67.30
15156;DHT22;7678;50.058;8.306;2023-09-08T11:54:52;27.60;66.70
15156;DHT22;7678;50.058;8.306;2023-09-08T11:57:33;27.50;68.00
15156;DHT22;7678;50.058;8.306;2023-09-08T12:00:02;27.50;67.20
15156;DHT22;7678;50.058;8.306;2023-09-08T12:02:37;27.50;68.10
15156;DHT22;7678;50.058;8.306;2023-09-08T12:05:11;27.60;67.10
15156;DHT22;7678;50.058;8.306;2023-09-08T12:07:39;27.40;67.80
15156;DHT22;7678;50.058;8.306;2023-09-08T12:10:11;27.50;67.10
15156;DHT22;7678;50.058;8.306;2023-09-08T12:12:53;27.80;67.30
15156;DHT22;7678;50.058;8.306;2023-09-08T12:15:31;27.80;66.20
15156;DHT22;7678;50.058;8.306;2023-09-08T12:18:05;27.70;66.70
15156;DHT22;7678;50.058;8.306;2023-09-08T12:20:38;27.20;66.20
15156;DHT22;7678;50.058;8.306;2023-09-08T12:23:15;27.80;66.60
15156;DHT22;7678;50.058;8.306;2023-09-08T12:25:47;28.10;65.70
15156;DHT22;7678;50.058;8.306;2023-09-08T12:28:18;27.60;64.30
15156;DHT22;7678;50.058;8.306;2023-09-08T12:30:48;28.00;66.00
15156;DHT22;7678;50.058;8.306;2023-09-08T12:33:17;28.00;63.90
15156;DHT22;7678;50.058;8.306;2023-09-08T12:35:50;28.00;62.10
15156;DHT22;7678;50.058;8.306;2023-09-08T12:38:20;28.10;64.20
15156;DHT22;7678;50.058;8.306;2023-09-08T12:40:49;28.30;64.60
15156;DHT22;7678;50.058;8.306;2023-09-08T12:43:17;28.50;63.80
15156;DHT22;7678;50.058;8.306;2023-09-08T12:45:54;28.80;62.50
15156;DHT22;7678;50.058;8.306;2023-09-08T12:48:26;28.90;63.80
15156;DHT22;7678;50.058;8.306;2023-09-08T12:50:58;28.90;64.90
15156;DHT22;7678;50.058;8.306;2023-09-08T12:53:27;29.00;63.30
15156;DHT22;7678;50.058;8.306;2023-09-08T12:55:55;28.40;61.60
15156;DHT22;7678;50.058;8.306;2023-09-08T12:58:26;28.30;62.50
15156;DHT22;7678;50.058;8.306;2023-09-08T13:00:56;28.70;62.90
15156;DHT22;7678;50.058;8.306;2023-09-08T13:03:26;28.80;62.10
15156;DHT22;7678;50.058;8.306;2023-09-08T13:05:57;29.00;60.70
15156;DHT22;7678;50.058;8.306;2023-09-08T13:08:25;29.10;61.20
15156;DHT22;7678;50.058;8.306;2023-09-08T13:10:59;28.90;61.70
15156;DHT22;7678;50.058;8.306;2023-09-08T13:13:32;28.60;60.30
15156;DHT22;7678;50.058;8.306;2023-09-08T13:16:01;28.80;59.90
15156;DHT22;7678;50.058;8.306;2023-09-08T13:18:30;29.00;59.20
15156;DHT22;7678;50.058;8.306;2023-09-08T13:21:08;29.10;59.30
15156;DHT22;7678;50.058;8.306;2023-09-08T13:23:37;29.30;57.70
15156;DHT22;7678;50.058;8.306;2023-09-08T13:26:05;29.30;58.00
15156;DHT22;7678;50.058;8.306;2023-09-08T13:28:34;29.10;58.10
15156;DHT22;7678;50.058;8.306;2023-09-08T13:31:03;29.00;58.70
15156;DHT22;7678;50.058;8.306;2023-09-08T13:33:37;29.30;59.20
15156;DHT22;7678;50.058;8.306;2023-09-08T13:36:10;29.50;57.50
15156;DHT22;7678;50.058;8.306;2023-09-08T13:38:40;29.70;58.10
15156;DHT22;7678;50.058;8.306;2023-09-08T13:41:09;29.40;57.90
15156;DHT22;7678;50.058;8.306;2023-09-08T13:43:38;29.20;57.80
15156;DHT22;7678;50.058;8.306;2023-09-08T13:46:07;28.80;58.10
15156;DHT22;7678;50.058;8.306;2023-09-08T13:48:38;29.10;58.20
15156;DHT22;7678;50.058;8.306;2023-09-08T13:51:10;29.20;55.60
15156;DHT22;7678;50.058;8.306;2023-09-08T13:53:44;29.10;57.60
15156;DHT22;7678;50.058;8.306;2023-09-08T13:56:16;29.10;56.70
15156;DHT22;7678;50.058;8.306;2023-09-08T13:58:47;29.50;56.90
15156;DHT22;7678;50.058;8.306;2023-09-08T14:01:21;29.70;56.40
15156;DHT22;7678;50.058;8.306;2023-09-08T14:03:53;29.70;57.00
15156;DHT22;7678;50.058;8.306;2023-09-08T14:06:34;29.50;55.50
15156;DHT22;7678;50.058;8.306;2023-09-08T14:09:15;29.30;55.10
15156;DHT22;7678;50.058;8.306;2023-09-08T14:12:04;29.00;56.50
15156;DHT22;7678;50.058;8.306;2023-09-08T14:14:36;28.80;58.00
15156;DHT22;7678;50.058;8.306;2023-09-08T14:17:05;28.70;56.40
15156;DHT22;7678;50.058;8.306;2023-09-08T14:19:33;28.70;57.90
15156;DHT22;7678;50.058;8.306;2023-09-08T14:22:07;28.60;56.50
15156;DHT22;7678;50.058;8.306;2023-09-08T14:24:36;28.80;56.60
15156;DHT22;7678;50.058;8.306;2023-09-08T14:27:07;29.20;58.20
15156;DHT22;7678;50.058;8.306;2023-09-08T14:29:36;28.90;56.10
15156;DHT22;7678;50.058;8.306;2023-09-08T14:32:04;28.80;56.90
15156;DHT22;7678;50.058;8.306;2023-09-08T14:34:33;28.90;57.10
15156;DHT22;7678;50.058;8.306;2023-09-08T14:37:07;28.70;56.20
15156;DHT22;7678;50.058;8.306;2023-09-08T14:39:37;28.40;56.20
15156;DHT22;7678;50.058;8.306;2023-09-08T14:42:12;28.20;56.00
15156;DHT22;7678;50.058;8.306;2023-09-08T14:44:42;28.40;56.30
15156;DHT22;7678;50.058;8.306;2023-09-08T14:47:10;28.50;56.00
15156;DHT22;7678;50.058;8.306;2023-09-08T14:49:46;28.60;56.00
15156;DHT22;7678;50.058;8.306;2023-09-08T14:52:22;28.60;56.70
15156;DHT22;7678;50.058;8.306;2023-09-08T14:54:55;28.30;56.80
15156;DHT22;7678;50.058;8.306;2023-09-08T14:57:23;28.40;56.50
15156;DHT22;7678;50.058;8.306;2023-09-08T14:59:54;28.60;56.80
15156;DHT22;7678;50.058;8.306;2023-09-08T15:02:26;28.60;56.10
15156;DHT22;7678;50.058;8.306;2023-09-08T15:04:55;28.70;54.40
15156;DHT22;7678;50.058;8.306;2023-09-08T15:07:27;28.60;54.60
15156;DHT22;7678;50.058;8.306;2023-09-08T15:09:56;28.30;54.50
15156;DHT22;7678;50.058;8.306;2023-09-08T15:12:25;28.30;55.00
15156;DHT22;7678;50.058;8.306;2023-09-08T15:14:56;28.10;54.90
15156;DHT22;7678;50.058;8.306;2023-09-08T15:17:25;28.00;54.70
15156;DHT22;7678;50.058;8.306;2023-09-08T15:19:53;28.10;55.60
15156;DHT22;7678;50.058;8.306;2023-09-08T15:22:22;28.10;56.10
15156;DHT22;7678;50.058;8.306;2023-09-08T15:24:52;28.00;55.90
15156;DHT22;7678;50.058;8.306;2023-09-08T15:27:20;28.30;54.30
15156;DHT22;7678;50.058;8.306;2023-09-08T15:29:50;28.40;54.70
15156;DHT22;7678;50.058;8.306;2023-09-08T15:32:18;28.20;54.80
15156;DHT22;7678;50.058;8.306;2023-09-08T15:34:49;28.30;55.80
15156;DHT22;7678;50.058;8.306;2023-09-08T15:37:19;28.40;54.60
15156;DHT22;7678;50.058;8.306;2023-09-08T15:39:52;28.40;54.80
15156;DHT22;7678;50.058;8.306;2023-09-08T15:42:20;28.30;53.90
15156;DHT22;7678;50.058;8.306;2023-09-08T15:44:48;28.30;53.40
15156;DHT22;7678;50.058;8.306;2023-09-08T15:47:17;28.30;54.80
15156;DHT22;7678;50.058;8.306;2023-09-08T15:49:47;28.30;54.30
15156;DHT22;7678;50.058;8.306;2023-09-08T15:52:18;28.30;55.50
15156;DHT22;7678;50.058;8.306;2023-09-08T15:54:46;28.20;55.10
15156;DHT22;7678;50.058;8.306;2023-09-08T15:57:16;28.20;54.50
15156;DHT22;7678;50.058;8.306;2023-09-08T15:59:45;28.20;55.00
15156;DHT22;7678;50.058;8.306;2023-09-08T16:02:14;28.40;55.20
15156;DHT22;7678;50.058;8.306;2023-09-08T16:04:43;28.40;55.10
15156;DHT22;7678;50.058;8.306;2023-09-08T16:07:11;28.40;57.00
15156;DHT22;7678;50.058;8.306;2023-09-08T16:09:39;28.40;55.70
15156;DHT22;7678;50.058;8.306;2023-09-08T16:12:08;28.40;57.00